Time;durP1;ratioP1;P1;durP2;ratioP2;P2;SDS_P1;SDS_P2;PMS_P1;PMS_P2;Temp;Humidity;BMP_temperature;BMP_pressure;BME280_temperature;BME280_humidity;BME280_pressure;Samples;Min_cycle;Max_cycle;Signal;HPM_P1;HPM_P2
2021/05/07 00:01:01;;;;;;;5.15;4.60;;;;;;;9.23;65.81;97823.94;2262247;79;21724;-78
2021/05/07 00:04:04;;;;;;;7.30;5.12;;;;;;;9.26;65.83;97814.94;2262146;79;21265;-79
2021/05/07 00:07:06;;;;;;;7.60;4.87;;;;;;;9.30;65.88;97809.12;2262225;78;21708;-79
2021/05/07 00:10:08;;;;;;;8.08;4.83;;;;;;;9.32;65.94;97804.50;2262174;78;21273;-78
2021/05/07 00:13:10;;;;;;;6.17;4.12;;;;;;;9.35;65.79;97809.36;2260842;78;21591;-78
2021/05/07 00:16:12;;;;;;;4.75;4.35;;;;;;;9.38;65.83;97810.27;2257958;79;21135;-79
2021/05/07 00:19:13;;;;;;;8.10;4.42;;;;;;;9.38;65.79;97806.85;2258032;78;21131;-79
2021/05/07 00:22:16;;;;;;;7.30;4.95;;;;;;;9.36;65.85;97799.71;2258181;79;21590;-77
2021/05/07 00:25:18;;;;;;;7.30;5.42;;;;;;;9.33;65.83;97802.22;2258321;79;21687;-79
2021/05/07 00:28:19;;;;;;;5.28;4.70;;;;;;;9.31;65.96;97793.75;2258443;79;21163;-78
2021/05/07 00:31:21;;;;;;;6.47;5.10;;;;;;;9.29;66.14;97794.45;2258067;78;21182;-78
2021/05/07 00:34:22;;;;;;;9.30;5.12;;;;;;;9.30;66.24;97796.56;2258176;79;21744;-77
2021/05/07 00:37:24;;;;;;;8.75;4.85;;;;;;;9.28;66.29;97795.95;2258332;78;21555;-79
2021/05/07 00:40:26;;;;;;;7.78;4.80;;;;;;;9.29;66.45;97786.61;2258090;78;21123;-78
2021/05/07 00:43:28;;;;;;;8.83;5.12;;;;;;;9.32;66.38;97786.72;2258300;79;21288;-78
2021/05/07 00:46:29;;;;;;;6.58;4.90;;;;;;;9.34;66.65;97787.35;2258077;79;21152;-78
2021/05/07 00:49:31;;;;;;;11.85;5.45;;;;;;;9.38;66.98;97780.72;2258243;78;21274;-79
2021/05/07 00:52:37;;;;;;;6.50;5.37;;;;;;;9.37;67.22;97782.53;2258030;78;21144;-78
2021/05/07 00:55:37;;;;;;;6.25;5.17;;;;;;;9.44;67.50;97775.23;2258215;79;21258;-78
2021/05/07 00:58:39;;;;;;;10.05;5.50;;;;;;;9.42;67.55;97776.73;2258083;79;21242;-79
2021/05/07 01:01:41;;;;;;;8.90;5.90;;;;;;;9.44;67.87;97776.54;2258419;78;21304;-77
2021/05/07 01:04:43;;;;;;;10.15;6.22;;;;;;;9.47;68.01;97767.80;2258071;79;21324;-78
2021/05/07 01:07:44;;;;;;;6.95;5.47;;;;;;;9.49;68.34;97768.41;2258161;78;21155;-77
2021/05/07 01:10:46;;;;;;;8.50;6.05;;;;;;;9.52;68.55;97758.89;2258134;79;21128;-77
2021/05/07 01:13:48;;;;;;;10.95;6.25;;;;;;;9.56;68.54;97759.29;2257920;78;21163;-78
2021/05/07 01:16:50;;;;;;;7.75;5.72;;;;;;;9.57;68.54;97745.22;2258179;79;21151;-79
2021/05/07 01:19:52;;;;;;;7.70;5.85;;;;;;;9.57;68.57;97744.72;2258247;79;21261;-78
2021/05/07 01:22:54;;;;;;;6.25;5.12;;;;;;;9.56;68.69;97745.72;2258294;79;21261;-78
2021/05/07 01:25:56;;;;;;;8.65;5.47;;;;;;;9.54;68.91;97743.81;2258009;78;21158;-78
2021/05/07 01:28:58;;;;;;;6.20;5.42;;;;;;;9.52;69.02;97745.82;2258278;78;21293;-78
2021/05/07 01:32:01;;;;;;;7.37;5.20;;;;;;;9.55;69.07;97742.80;2258010;78;21167;-78
2021/05/07 01:35:02;;;;;;;6.62;4.78;;;;;;;9.52;69.08;97733.26;2258475;79;21310;-77
2021/05/07 01:38:05;;;;;;;8.10;5.05;;;;;;;9.51;69.15;97726.39;2258362;78;22267;-78
2021/05/07 01:41:07;;;;;;;9.00;5.33;;;;;;;9.46;69.41;97723.08;2258376;79;21316;-78
2021/05/07 01:44:09;;;;;;;6.35;4.95;;;;;;;9.41;69.43;97721.04;2258080;79;21151;-78
2021/05/07 01:47:12;;;;;;;7.05;4.87;;;;;;;9.31;69.66;97710.66;2258213;79;21543;-79
2021/05/07 01:50:14;;;;;;;5.03;4.53;;;;;;;9.18;69.62;97713.23;2258335;78;21147;-76
2021/05/07 01:53:16;;;;;;;10.25;5.50;;;;;;;9.07;70.19;97706.76;2258732;79;21706;-79
2021/05/07 01:56:18;;;;;;;7.05;5.55;;;;;;;8.99;70.40;97702.50;2258994;79;21151;-77
2021/05/07 01:59:20;;;;;;;9.35;5.92;;;;;;;8.94;70.57;97698.34;2259996;78;21253;-76
2021/05/07 02:02:22;;;;;;;8.85;5.50;;;;;;;8.89;71.17;97698.13;2259711;79;21254;-78
2021/05/07 02:05:25;;;;;;;8.43;5.45;;;;;;;8.83;71.28;97691.06;2259169;79;21266;-79
2021/05/07 02:08:27;;;;;;;7.55;6.08;;;;;;;8.79;71.45;97691.96;2258127;78;21159;-77
2021/05/07 02:11:29;;;;;;;6.95;5.12;;;;;;;8.80;71.95;97692.77;2258309;79;21179;-78
2021/05/07 02:14:30;;;;;;;6.25;4.83;;;;;;;8.79;71.86;97688.55;2260872;78;21344;-80
2021/05/07 02:17:32;;;;;;;6.85;4.35;;;;;;;8.75;72.16;97695.13;2262586;78;21131;-79
2021/05/07 02:20:34;;;;;;;6.08;4.28;;;;;;;8.72;72.21;97691.11;2262371;78;21279;-79
2021/05/07 02:23:36;;;;;;;4.58;4.17;;;;;;;8.71;72.63;97693.42;2262608;79;21269;-79
2021/05/07 02:26:38;;;;;;;7.47;4.60;;;;;;;8.72;72.73;97694.22;2262508;79;21274;-78
2021/05/07 02:29:41;;;;;;;6.53;5.00;;;;;;;8.70;73.00;97691.81;2262446;79;21171;-77
2021/05/07 02:32:42;;;;;;;4.78;3.65;;;;;;;8.68;73.06;97693.78;2262471;78;21278;-78
2021/05/07 02:35:44;;;;;;;5.85;4.05;;;;;;;8.64;73.38;97689.16;2262243;78;21258;-78
2021/05/07 02:38:45;;;;;;;7.35;3.75;;;;;;;8.59;73.88;97687.11;2262605;79;21305;-78
2021/05/07 02:41:47;;;;;;;5.33;3.45;;;;;;;8.57;73.75;97679.97;2262476;78;21290;-78
2021/05/07 02:44:49;;;;;;;4.50;3.80;;;;;;;8.59;74.15;97675.86;2262205;78;21611;-78
2021/05/07 02:47:52;;;;;;;5.72;4.90;;;;;;;8.56;74.26;97664.02;2262472;79;21123;-78
2021/05/07 02:50:54;;;;;;;5.12;4.62;;;;;;;8.56;74.42;97670.53;2262195;79;21289;-78
2021/05/07 02:53:55;;;;;;;5.25;4.10;;;;;;;8.52;74.49;97659.69;2262530;79;21298;-78
2021/05/07 02:56:58;;;;;;;4.85;3.92;;;;;;;8.51;74.55;97663.80;2262536;78;21686;-78
2021/05/07 03:00:00;;;;;;;5.65;3.77;;;;;;;8.51;74.79;97653.36;2262323;78;21294;-77
2021/05/07 03:03:02;;;;;;;4.70;3.75;;;;;;;8.51;75.01;97654.67;2262245;79;21257;-78
2021/05/07 03:06:04;;;;;;;4.80;4.30;;;;;;;8.49;74.97;97643.09;2262228;78;21730;-78
2021/05/07 03:09:06;;;;;;;5.58;3.77;;;;;;;8.54;75.04;97645.14;2262223;78;21262;-78
2021/05/07 03:12:08;;;;;;;4.10;3.70;;;;;;;8.58;75.37;97631.20;2262191;79;21167;-78
2021/05/07 03:15:10;;;;;;;4.60;3.85;;;;;;;8.59;75.34;97627.59;2262506;78;21321;-79
2021/05/07 03:18:13;;;;;;;4.33;3.92;;;;;;;8.53;75.46;97623.47;2262224;78;21175;-79
2021/05/07 03:21:14;;;;;;;6.30;4.40;;;;;;;8.52;75.65;97624.47;2262506;78;21461;-78
2021/05/07 03:24:16;;;;;;;7.05;4.20;;;;;;;8.46;75.69;97621.31;2262449;78;21282;-79
2021/05/07 03:27:19;;;;;;;3.37;3.10;;;;;;;8.46;76.00;97627.03;2262160;79;21270;-78
2021/05/07 03:30:21;;;;;;;4.45;3.67;;;;;;;8.46;76.22;97622.62;2262492;78;21179;-78
2021/05/07 03:33:22;;;;;;;4.95;3.25;;;;;;;8.40;76.65;97625.98;2262823;78;21828;-78
2021/05/07 03:36:24;;;;;;;4.85;3.70;;;;;;;8.36;76.50;97621.36;2262338;78;21154;-79
2021/05/07 03:39:26;;;;;;;5.37;3.52;;;;;;;8.31;76.99;97611.45;2262311;79;21131;-79
2021/05/07 03:42:27;;;;;;;4.72;3.22;;;;;;;8.22;78.68;97602.17;2262034;78;21574;-78
2021/05/07 03:45:30;;;;;;;6.42;3.60;;;;;;;8.12;77.04;97604.31;2262194;78;21313;-78
2021/05/07 03:48:32;;;;;;;3.33;3.02;;;;;;;8.10;77.51;97607.12;2262440;79;21277;-79
2021/05/07 03:51:33;;;;;;;4.00;3.12;;;;;;;8.12;77.56;97601.20;2262376;78;21274;-79
2021/05/07 03:54:35;;;;;;;3.27;2.98;;;;;;;8.17;77.59;97604.56;2262398;78;21170;-79
2021/05/07 03:57:37;;;;;;;6.58;4.45;;;;;;;8.13;77.79;97601.51;2262638;78;21325;-78
2021/05/07 04:00:40;;;;;;;5.05;4.40;;;;;;;8.15;77.68;97603.45;2262741;78;21289;-77
2021/05/07 04:03:42;;;;;;;4.90;4.45;;;;;;;8.16;77.94;97598.55;2262385;78;21254;-79
2021/05/07 04:06:43;;;;;;;5.85;5.30;;;;;;;8.15;77.88;97606.06;2262742;79;21301;-78
2021/05/07 04:09:50;;;;;;;4.90;4.30;;;;;;;8.20;77.94;97611.49;2262393;78;21123;-78
2021/05/07 04:16:09;;;;;;;3.72;3.42;;;;;;;8.27;78.19;97594.59;2258502;79;21175;-77
2021/05/07 04:19:11;;;;;;;4.28;3.77;;;;;;;8.24;78.00;97598.89;2258370;79;21155;-78
2021/05/07 04:22:14;;;;;;;3.90;3.50;;;;;;;8.20;78.58;97602.36;2258336;78;21266;-78
2021/05/07 04:25:17;;;;;;;3.40;3.20;;;;;;;8.17;78.70;97599.34;2257994;78;21281;-78
2021/05/07 04:28:19;;;;;;;2.77;2.58;;;;;;;8.16;78.83;97599.84;2258113;78;21143;-77
2021/05/07 04:31:21;;;;;;;4.17;3.22;;;;;;;8.14;78.97;97592.72;2258083;79;21185;-78
2021/05/07 04:34:22;;;;;;;4.60;3.17;;;;;;;8.13;79.15;97596.80;2258176;79;21159;-77
2021/05/07 04:37:24;;;;;;;2.85;2.67;;;;;;;8.13;79.68;97597.59;2258062;79;21127;-77
2021/05/07 04:40:26;;;;;;;3.75;2.60;;;;;;;8.08;79.77;97593.47;2258074;79;21131;-78
2021/05/07 04:43:28;;;;;;;3.52;3.00;;;;;;;8.08;79.68;97600.48;2257883;79;21590;-78
2021/05/07 04:46:30;;;;;;;3.55;3.25;;;;;;;8.09;79.52;97591.67;2258383;79;21135;-77
2021/05/07 04:49:32;;;;;;;3.77;2.80;;;;;;;8.10;79.58;97594.58;2258080;78;21119;-78
2021/05/07 04:52:34;;;;;;;3.12;2.92;;;;;;;8.10;79.80;97588.06;2258511;79;21159;-78
2021/05/07 04:55:36;;;;;;;3.65;3.17;;;;;;;8.13;80.02;97591.58;2258313;79;21132;-78
2021/05/07 04:58:38;;;;;;;3.42;3.10;;;;;;;8.16;79.96;97591.22;2258399;79;21135;-78
2021/05/07 05:01:40;;;;;;;4.87;3.42;;;;;;;8.16;80.07;97592.52;2258075;79;21166;-78
2021/05/07 05:04:42;;;;;;;3.75;3.05;;;;;;;8.18;80.15;97585.31;2258045;78;21135;-78
2021/05/07 05:07:45;;;;;;;3.37;3.08;;;;;;;8.25;80.12;97590.07;2258329;79;21242;-78
2021/05/07 05:10:46;;;;;;;4.20;3.77;;;;;;;8.30;80.02;97586.38;2258034;79;21151;-79
2021/05/07 05:13:48;;;;;;;3.62;3.33;;;;;;;8.35;79.92;97584.04;2258258;79;21635;-77
2021/05/07 05:16:50;;;;;;;7.35;3.67;;;;;;;8.41;80.00;97584.58;2262682;78;21254;-78
2021/05/07 05:19:52;;;;;;;5.00;4.40;;;;;;;8.43;80.17;97581.27;2262320;78;21128;-77
2021/05/07 05:22:54;;;;;;;4.58;3.83;;;;;;;8.44;79.95;97584.69;2262341;78;21265;-78
2021/05/07 05:25:56;;;;;;;5.35;4.58;;;;;;;8.52;80.26;97581.92;2262310;79;21261;-79
2021/05/07 05:28:57;;;;;;;5.97;5.47;;;;;;;8.59;79.99;97589.26;2262438;78;21750;-77
2021/05/07 05:31:59;;;;;;;8.43;5.97;;;;;;;8.67;80.04;97583.88;2262618;79;21310;-81
2021/05/07 05:35:01;;;;;;;7.12;6.37;;;;;;;8.73;80.41;97591.44;2262420;78;21158;-77
2021/05/07 05:38:03;;;;;;;8.08;6.60;;;;;;;8.78;79.86;97596.39;2262292;78;21710;-78
2021/05/07 05:41:05;;;;;;;5.87;4.33;;;;;;;8.93;79.89;97592.81;2262295;79;21309;-76
2021/05/07 05:44:07;;;;;;;6.15;4.78;;;;;;;9.09;79.78;97587.24;2262737;78;21181;-79
2021/05/07 05:47:08;;;;;;;5.53;5.03;;;;;;;9.19;79.34;97585.05;2262288;78;21301;-80
2021/05/07 05:50:11;;;;;;;5.62;4.67;;;;;;;9.31;79.20;97580.84;2262556;78;21638;-81
2021/05/07 05:53:12;;;;;;;6.60;4.70;;;;;;;9.46;79.07;97578.56;2262105;78;21627;-80
2021/05/07 05:56:14;;;;;;;4.72;4.33;;;;;;;9.67;79.04;97576.56;2262478;78;21297;-78
2021/05/07 05:59:16;;;;;;;4.67;4.25;;;;;;;9.94;78.87;97577.86;2262160;79;21155;-79
2021/05/07 06:02:17;;;;;;;6.80;5.00;;;;;;;10.24;78.58;97573.84;2262173;78;21155;-81
2021/05/07 06:05:20;;;;;;;5.28;4.30;;;;;;;10.58;78.00;97580.27;2262289;78;21630;-77
2021/05/07 06:08:22;;;;;;;5.55;4.75;;;;;;;10.91;77.73;97583.56;2262280;78;21270;-79
2021/05/07 06:11:24;;;;;;;6.90;4.62;;;;;;;11.08;77.04;97582.07;2262272;78;21281;-79
2021/05/07 06:14:26;;;;;;;4.58;4.17;;;;;;;11.26;76.22;97587.12;2262387;78;21285;-80
2021/05/07 06:17:28;;;;;;;5.08;4.42;;;;;;;11.38;75.96;97587.53;2262276;78;21131;-79
2021/05/07 06:20:29;;;;;;;10.38;9.28;;;;;;;11.53;76.06;97587.75;2262732;78;21313;-79
2021/05/07 06:23:32;;;;;;;7.45;5.35;;;;;;;11.69;75.76;97589.83;2262806;78;21163;-79
2021/05/07 06:26:33;;;;;;;8.15;4.78;;;;;;;11.83;75.46;97591.87;2262210;78;21721;-82
2021/05/07 06:29:35;;;;;;;5.95;5.22;;;;;;;11.92;75.15;97587.97;2262441;79;21277;-82
2021/05/07 06:32:37;;;;;;;7.42;5.35;;;;;;;12.03;75.19;97583.32;2262252;78;21333;-80
2021/05/07 06:35:39;;;;;;;7.00;6.30;;;;;;;12.22;75.02;97584.95;2262283;79;21305;-78
2021/05/07 06:38:40;;;;;;;22.25;13.72;;;;;;;12.36;74.64;97594.83;2262312;78;21749;-78
2021/05/07 06:41:42;;;;;;;14.05;8.98;;;;;;;12.43;74.32;97593.42;2262310;79;21282;-79
2021/05/07 06:44:44;;;;;;;8.90;6.12;;;;;;;12.59;74.12;97596.78;2262594;78;21282;-79
2021/05/07 06:47:46;;;;;;;7.87;6.22;;;;;;;12.79;73.41;97587.36;2262494;78;21254;-78
2021/05/07 06:50:48;;;;;;;17.95;12.58;;;;;;;12.89;73.34;97592.89;2262692;78;21301;-78
2021/05/07 06:53:50;;;;;;;9.23;8.10;;;;;;;12.89;72.87;97592.89;2262452;79;21289;-78
2021/05/07 06:56:52;;;;;;;9.73;7.53;;;;;;;12.90;72.59;97594.52;2262227;78;21257;-78
2021/05/07 06:59:54;;;;;;;12.63;9.85;;;;;;;12.93;72.73;97596.70;2262297;79;21135;-77
2021/05/07 07:02:56;;;;;;;9.05;7.30;;;;;;;12.97;72.28;97603.09;2262206;79;21266;-78
2021/05/07 07:05:58;;;;;;;7.65;6.62;;;;;;;13.01;72.10;97589.83;2262226;78;21154;-80
2021/05/07 07:09:00;;;;;;;14.23;10.60;;;;;;;13.06;71.77;97582.57;2262224;78;21278;-78
2021/05/07 07:12:02;;;;;;;12.55;9.50;;;;;;;13.20;71.28;97589.30;2261887;79;21135;-78
2021/05/07 07:15:04;;;;;;;36.38;23.42;;;;;;;13.30;71.08;97587.45;2261018;79;21274;-78
2021/05/07 07:18:06;;;;;;;30.90;15.90;;;;;;;13.38;71.29;97587.13;2257911;79;21134;-78
2021/05/07 07:21:08;;;;;;;33.30;15.23;;;;;;;13.48;70.70;97587.38;2258019;79;21160;-78
2021/05/07 07:24:10;;;;;;;30.90;15.63;;;;;;;13.53;70.30;97591.47;2258013;79;21281;-78
2021/05/07 07:27:12;;;;;;;28.47;13.95;;;;;;;13.60;70.25;97589.52;2258258;79;21135;-78
2021/05/07 07:30:14;;;;;;;34.63;17.75;;;;;;;13.66;70.29;97598.34;2258463;79;21695;-78
2021/05/07 07:33:16;;;;;;;12.53;9.33;;;;;;;13.72;70.06;97601.39;2258375;79;21143;-78
2021/05/07 07:36:18;;;;;;;10.32;6.35;;;;;;;13.85;69.16;97603.80;2258405;79;21274;-78
2021/05/07 07:39:20;;;;;;;11.12;7.97;;;;;;;13.85;69.16;97603.80;2258113;79;21136;-81
2021/05/07 07:42:22;;;;;;;12.03;8.20;;;;;;;13.91;68.75;97602.11;2258149;78;21272;-78
2021/05/07 07:45:25;;;;;;;13.10;8.75;;;;;;;13.91;68.75;97602.11;2258576;79;21707;-82
2021/05/07 07:48:26;;;;;;;17.82;14.40;;;;;;;14.01;68.83;97608.92;2243058;78;21144;-81
2021/05/07 07:51:31;;;;;;;12.37;8.35;;;;;;;14.16;68.31;97606.62;2219183;78;21201;-81
2021/05/07 07:54:32;;;;;;;11.85;7.00;;;;;;;14.06;68.26;97603.75;2218256;80;21281;-80
2021/05/07 07:57:34;;;;;;;16.80;8.78;;;;;;;14.00;67.95;97612.58;2218594;80;21285;-82
2021/05/07 08:00:36;;;;;;;13.25;7.83;;;;;;;13.49;68.42;97606.59;2254976;79;21108;-83
2021/05/07 08:03:38;;;;;;;25.68;17.55;;;;;;;13.49;68.42;97606.59;2258202;79;21115;-82
2021/05/07 08:06:40;;;;;;;18.15;15.38;;;;;;;13.38;68.57;97614.73;2243222;79;21271;-83
2021/05/07 08:09:41;;;;;;;22.82;9.05;;;;;;;13.50;69.03;97620.82;2218398;80;21569;-84
2021/05/07 08:12:43;;;;;;;17.00;7.15;;;;;;;13.83;68.75;97626.91;2231942;79;21135;-82
2021/05/07 08:15:45;;;;;;;22.27;13.53;;;;;;;14.10;67.89;97618.59;2226219;79;21733;-79
2021/05/07 08:18:46;;;;;;;16.73;9.35;;;;;;;14.26;68.18;97622.35;2223852;79;21152;-80
2021/05/07 08:21:48;;;;;;;29.98;16.27;;;;;;;14.40;67.93;97614.52;2225044;79;21119;-79
2021/05/07 08:24:50;;;;;;;19.50;11.22;;;;;;;14.67;67.34;97618.30;2220507;79;21282;-78
2021/05/07 08:27:51;;;;;;;40.98;20.92;;;;;;;15.01;67.10;97630.31;2231711;79;21114;-78
2021/05/07 08:30:53;;;;;;;17.12;10.35;;;;;;;15.34;66.69;97624.33;2224491;79;21624;-83
2021/05/07 08:33:55;;;;;;;9.38;5.60;;;;;;;15.60;66.06;97625.09;2218462;80;21168;-83
2021/05/07 08:36:59;;;;;;;7.50;4.37;;;;;;;15.78;64.70;97620.64;2221473;79;21286;-79
2021/05/07 08:40:01;;;;;;;6.17;4.58;;;;;;;15.73;64.32;97623.21;2218474;79;21246;-81
2021/05/07 08:43:03;;;;;;;4.35;3.75;;;;;;;15.51;64.53;97625.17;2228961;79;21323;-81
2021/05/07 08:46:05;;;;;;;4.62;4.20;;;;;;;15.31;63.20;97634.05;2234585;79;21126;-77
2021/05/07 08:49:06;;;;;;;6.33;4.10;;;;;;;15.15;63.24;97636.10;2221819;79;21715;-78
2021/05/07 08:52:08;;;;;;;4.65;3.70;;;;;;;15.04;62.88;97637.75;2230011;79;21325;-81
2021/05/07 08:55:10;;;;;;;3.85;3.27;;;;;;;14.97;62.77;97643.14;2219339;79;21683;-77
2021/05/07 08:58:12;;;;;;;6.40;3.67;;;;;;;14.79;62.49;97648.05;2230806;79;21139;-81
2021/05/07 09:01:14;;;;;;;4.53;3.40;;;;;;;14.57;63.45;97644.42;2231442;79;21155;-78
2021/05/07 09:04:16;;;;;;;9.50;5.67;;;;;;;14.36;64.21;97656.84;2220394;79;21294;-78
2021/05/07 09:07:18;;;;;;;11.73;6.37;;;;;;;14.27;64.57;97668.73;2229669;79;21546;-76
2021/05/07 09:10:20;;;;;;;16.65;10.05;;;;;;;14.09;65.67;97677.53;2226949;79;21123;-82
2021/05/07 09:13:22;;;;;;;7.30;5.03;;;;;;;13.99;65.64;97670.68;2219050;79;21280;-85
2021/05/07 09:16:24;;;;;;;3.85;3.55;;;;;;;13.99;65.64;97670.68;2219069;78;21277;-84
2021/05/07 09:19:26;;;;;;;3.95;3.08;;;;;;;14.02;65.80;97668.42;2228146;79;21674;-81
2021/05/07 09:22:28;;;;;;;3.98;2.60;;;;;;;14.48;65.49;97673.46;2225449;79;21260;-81
2021/05/07 09:25:30;;;;;;;5.35;3.27;;;;;;;14.48;65.49;97673.46;2227080;79;21266;-83
2021/05/07 09:28:32;;;;;;;2.10;2.00;;;;;;;14.84;66.32;97672.41;2219899;80;21123;-82
2021/05/07 09:31:33;;;;;;;2.08;1.87;;;;;;;15.10;65.23;97661.06;2229012;78;21111;-80
2021/05/07 09:34:36;;;;;;;1.35;1.25;;;;;;;15.36;63.88;97657.86;2234394;79;21266;-80
2021/05/07 09:37:37;;;;;;;1.72;1.55;;;;;;;15.57;62.22;97666.96;2227661;79;21150;-79
2021/05/07 09:40:39;;;;;;;1.92;1.82;;;;;;;15.59;62.53;97675.44;2225570;79;21158;-81
2021/05/07 09:43:41;;;;;;;2.45;1.52;;;;;;;15.50;61.51;97672.90;2232893;79;21127;-81
2021/05/07 09:46:43;;;;;;;1.95;1.85;;;;;;;15.38;62.07;97686.14;2240500;79;21100;-87
2021/05/07 09:49:45;;;;;;;1.82;1.72;;;;;;;15.13;61.59;97679.05;2245469;78;21269;-83
2021/05/07 09:52:49;;;;;;;5.22;2.50;;;;;;;15.18;62.50;97673.85;2265484;78;21162;-83
2021/05/07 09:55:50;;;;;;;2.25;1.95;;;;;;;15.38;61.20;97680.86;2265268;79;21116;-84
2021/05/07 09:58:52;;;;;;;3.15;2.77;;;;;;;15.40;61.73;97682.74;2265188;78;21265;-83
2021/05/07 10:01:54;;;;;;;5.75;4.10;;;;;;;15.08;61.02;97693.70;2265414;79;21265;-83
2021/05/07 10:04:56;;;;;;;5.67;4.70;;;;;;;14.72;61.44;97702.73;2265281;78;21265;-85
2021/05/07 10:07:59;;;;;;;6.00;5.10;;;;;;;14.71;61.41;97701.09;2265603;78;21273;-84
2021/05/07 10:11:00;;;;;;;5.03;4.45;;;;;;;14.78;61.21;97699.15;2265212;78;22196;-84
2021/05/07 10:14:02;;;;;;;6.05;4.15;;;;;;;14.67;61.26;97691.27;2265150;78;21154;-84
2021/05/07 10:17:04;;;;;;;3.60;3.30;;;;;;;14.61;61.56;97696.12;2260134;79;21563;-84
2021/05/07 10:20:09;;;;;;;4.15;3.85;;;;;;;14.72;61.10;97693.98;2258515;79;21302;-84
2021/05/07 10:23:11;;;;;;;7.17;4.50;;;;;;;15.02;60.81;97698.61;2258246;79;21609;-84
2021/05/07 10:26:13;;;;;;;5.35;4.97;;;;;;;15.07;60.61;97708.45;2258358;79;21570;-84
2021/05/07 10:29:15;;;;;;;4.55;4.25;;;;;;;15.01;59.91;97711.52;2258636;79;21163;-84
2021/05/07 10:32:17;;;;;;;6.35;5.60;;;;;;;15.11;60.53;97708.28;2257969;79;21166;-83
2021/05/07 10:35:19;;;;;;;7.50;6.05;;;;;;;15.22;60.06;97711.41;2258002;79;21150;-83
2021/05/07 10:38:21;;;;;;;5.28;4.83;;;;;;;15.33;58.69;97720.31;2257917;79;21175;-83
2021/05/07 10:41:23;;;;;;;8.60;7.10;;;;;;;15.51;58.81;97721.98;2257942;79;21622;-82
2021/05/07 10:44:25;;;;;;;6.95;6.33;;;;;;;15.48;59.32;97728.53;2257892;79;21167;-83
2021/05/07 10:47:26;;;;;;;7.45;6.75;;;;;;;15.17;59.21;97742.92;2258531;79;21150;-83
2021/05/07 10:50:29;;;;;;;6.83;5.70;;;;;;;15.13;58.85;97747.07;2257774;79;21160;-84
2021/05/07 10:53:31;;;;;;;11.22;8.13;;;;;;;14.90;59.18;97757.63;2258380;79;21317;-84
2021/05/07 10:56:32;;;;;;;11.30;7.42;;;;;;;14.68;59.06;97760.05;2257968;79;21123;-84
2021/05/07 10:59:34;;;;;;;7.53;6.53;;;;;;;14.37;60.20;97766.41;2258096;79;21191;-83
2021/05/07 11:02:36;;;;;;;7.55;6.75;;;;;;;13.99;60.20;97776.78;2258258;79;21136;-84
2021/05/07 11:05:38;;;;;;;6.05;5.55;;;;;;;13.88;60.62;97767.80;2257956;79;21135;-84
2021/05/07 11:08:40;;;;;;;9.75;5.65;;;;;;;13.81;60.77;97778.94;2257941;79;21127;-83
2021/05/07 11:11:42;;;;;;;7.28;6.58;;;;;;;13.73;61.62;97774.50;2258222;79;21285;-83
2021/05/07 11:14:46;;;;;;;8.28;7.50;;;;;;;13.73;61.62;97774.50;2258359;79;21116;-82
2021/05/07 11:17:47;;;;;;;5.78;5.28;;;;;;;13.87;61.57;97779.34;2261446;78;21337;-83
2021/05/07 11:20:50;;;;;;;5.28;4.78;;;;;;;14.09;61.68;97774.92;2262615;78;21167;-84
2021/05/07 11:23:52;;;;;;;5.05;4.55;;;;;;;14.21;60.48;97775.23;2262508;79;21123;-83
2021/05/07 11:26:53;;;;;;;5.25;4.78;;;;;;;14.17;60.66;97773.26;2262195;79;21167;-84
2021/05/07 11:29:56;;;;;;;5.47;4.70;;;;;;;14.03;60.99;97764.77;2262294;79;21685;-84
2021/05/07 11:32:58;;;;;;;4.92;4.45;;;;;;;14.13;60.94;97774.23;2262146;79;21309;-84
2021/05/07 11:36:00;;;;;;;3.45;3.22;;;;;;;14.33;60.74;97768.67;2262203;78;21273;-84
2021/05/07 11:39:01;;;;;;;4.80;4.28;;;;;;;14.43;58.54;97757.58;2262560;78;21317;-93
2021/05/07 11:42:03;;;;;;;4.35;3.92;;;;;;;14.56;59.02;97762.67;2262736;79;21310;-84
2021/05/07 11:45:06;;;;;;;4.35;4.00;;;;;;;14.68;59.23;97769.27;2262266;78;21285;-85
2021/05/07 11:48:08;;;;;;;5.33;3.65;;;;;;;14.79;58.16;97774.53;2262399;78;21285;-78
2021/05/07 11:51:10;;;;;;;3.92;3.55;;;;;;;14.85;57.29;97772.83;2262478;78;21170;-79
2021/05/07 11:54:12;;;;;;;4.15;3.75;;;;;;;14.78;57.15;97767.66;2262387;79;21262;-78
2021/05/07 11:57:15;;;;;;;5.45;3.83;;;;;;;14.86;56.66;97757.81;2262584;79;21112;-79
2021/05/07 12:00:17;;;;;;;3.87;3.55;;;;;;;14.79;56.02;97762.67;2262209;78;21158;-82
2021/05/07 12:03:24;;;;;;;5.00;3.90;;;;;;;14.76;55.85;97756.55;2262213;78;21163;-79
2021/05/07 12:06:22;;;;;;;4.45;3.90;;;;;;;14.89;54.99;97758.14;2261733;79;21705;-77
2021/05/07 12:09:25;;;;;;;3.33;3.02;;;;;;;14.71;54.58;97755.63;2262391;79;21686;-79
2021/05/07 12:12:28;;;;;;;2.98;2.62;;;;;;;14.82;53.95;97744.30;2261968;79;21143;-79
2021/05/07 12:15:31;;;;;;;3.70;3.27;;;;;;;14.76;55.34;97748.65;2262705;78;21289;-78
2021/05/07 12:18:35;;;;;;;3.05;2.77;;;;;;;14.74;54.04;97749.92;2262495;78;21761;-77
2021/05/07 12:21:37;;;;;;;3.37;3.08;;;;;;;14.77;54.14;97749.45;2262496;79;21325;-78
2021/05/07 12:24:38;;;;;;;5.75;3.95;;;;;;;14.89;54.06;97750.23;2262439;78;21799;-78
2021/05/07 12:27:41;;;;;;;3.40;2.83;;;;;;;14.72;55.34;97761.17;2262502;79;21257;-79
2021/05/07 12:30:44;;;;;;;2.77;2.50;;;;;;;14.40;55.14;97762.79;2262313;78;21131;-78
2021/05/07 12:33:47;;;;;;;2.40;2.20;;;;;;;14.26;55.71;97764.01;2262464;78;21773;-79
2021/05/07 12:36:48;;;;;;;2.30;1.82;;;;;;;14.08;53.53;97753.06;2262784;79;21309;-80
2021/05/07 12:39:50;;;;;;;4.12;2.27;;;;;;;13.87;54.31;97772.77;2262369;78;21266;-78
2021/05/07 12:42:52;;;;;;;1.20;1.10;;;;;;;13.69;54.66;97775.44;2262336;78;21122;-78
2021/05/07 12:45:53;;;;;;;1.30;1.20;;;;;;;13.56;55.03;97786.13;2262518;79;21705;-78
2021/05/07 12:48:55;;;;;;;2.12;1.50;;;;;;;13.59;55.04;97778.59;2262365;78;21309;-78
2021/05/07 12:51:56;;;;;;;2.30;1.80;;;;;;;13.72;54.47;97774.21;2262493;79;21301;-78
2021/05/07 12:54:58;;;;;;;2.22;1.85;;;;;;;13.88;55.23;97784.89;2262650;78;21685;-77
2021/05/07 12:58:00;;;;;;;3.30;1.95;;;;;;;13.80;55.57;97793.09;2262656;79;21143;-78
2021/05/07 13:01:02;;;;;;;1.70;1.60;;;;;;;13.69;55.12;97793.05;2262337;78;21258;-77
2021/05/07 13:04:06;;;;;;;2.00;1.65;;;;;;;13.68;54.84;97807.23;2262668;78;21136;-79
2021/05/07 13:07:07;;;;;;;1.30;1.20;;;;;;;13.74;54.26;97813.73;2262634;79;21536;-79
2021/05/07 13:10:09;;;;;;;2.08;1.70;;;;;;;13.77;53.99;97814.59;2262700;78;21313;-77
2021/05/07 13:13:12;;;;;;;3.27;2.60;;;;;;;13.89;54.73;97807.55;2262546;78;21139;-78
2021/05/07 13:16:14;;;;;;;2.58;2.37;;;;;;;14.03;54.83;97815.28;2262402;78;22317;-78
2021/05/07 13:19:16;;;;;;;3.30;2.60;;;;;;;14.02;55.03;97815.80;2262514;78;21746;-77
2021/05/07 13:22:18;;;;;;;2.47;2.22;;;;;;;14.22;54.07;97818.95;2262375;78;21301;-79
2021/05/07 13:25:20;;;;;;;9.63;1.98;;;;;;;14.22;54.07;97818.95;2262289;78;21174;-79
2021/05/07 13:28:23;;;;;;;1.87;1.37;;;;;;;14.26;53.44;97825.88;2262312;78;21266;-78
2021/05/07 13:31:25;;;;;;;1.85;1.70;;;;;;;14.37;52.36;97817.75;2262624;79;21293;-78
2021/05/07 13:34:28;;;;;;;1.65;1.55;;;;;;;14.54;52.44;97822.69;2262725;78;21151;-77
2021/05/07 13:37:32;;;;;;;1.82;1.72;;;;;;;14.64;50.97;97832.16;2262560;78;21321;-78
2021/05/07 13:40:33;;;;;;;2.95;2.75;;;;;;;14.70;50.41;97827.28;2262414;79;21720;-83
2021/05/07 13:43:35;;;;;;;1.60;1.50;;;;;;;14.92;56.81;97838.09;2262320;79;21755;-82
2021/05/07 13:46:37;;;;;;;1.98;1.47;;;;;;;15.19;51.68;97838.96;2262672;78;21765;-83
2021/05/07 13:49:39;;;;;;;1.60;1.50;;;;;;;15.41;51.76;97842.59;2260034;78;21270;-81
2021/05/07 13:52:40;;;;;;;1.57;1.47;;;;;;;15.57;50.70;97839.25;2223677;78;21558;-82
2021/05/07 13:55:42;;;;;;;1.98;1.87;;;;;;;15.54;50.40;97845.49;2208093;80;21122;-81
2021/05/07 13:58:44;;;;;;;2.35;2.15;;;;;;;15.30;49.22;97848.69;2206405;79;21626;-81
2021/05/07 14:01:45;;;;;;;2.52;2.20;;;;;;;14.78;48.59;97851.18;2170732;80;21746;-81
2021/05/07 14:04:47;;;;;;;2.62;1.77;;;;;;;14.48;49.75;97852.56;2211863;80;21292;-79
2021/05/07 14:07:49;;;;;;;2.20;2.00;;;;;;;14.47;50.70;97855.70;2226534;79;21439;-80
2021/05/07 14:10:51;;;;;;;3.02;2.35;;;;;;;14.47;49.86;97850.95;2225324;78;21276;-82
2021/05/07 14:13:53;;;;;;;2.58;2.37;;;;;;;14.60;49.83;97861.28;2154583;82;21165;-81
2021/05/07 14:16:55;;;;;;;5.05;2.47;;;;;;;14.68;51.20;97854.38;2097523;82;21151;-80
2021/05/07 14:19:57;;;;;;;4.92;3.12;;;;;;;14.62;51.42;97871.59;2221923;79;21308;-82